Time;durP1;ratioP1;P1;durP2;ratioP2;P2;SDS_P1;SDS_P2;PMS_P1;PMS_P2;Temp;Humidity;BMP_temperature;BMP_pressure;BME280_temperature;BME280_humidity;BME280_pressure;Samples;Min_cycle;Max_cycle;Signal;HPM_P1;HPM_P2
2021/08/19 00:00:47;;;;;;;21.73;15.20;;;;;;;13.98;100.00;100820.78;5007357;28;20450;-75
2021/08/19 00:03:13;;;;;;;22.25;14.32;;;;;;;13.99;100.00;100825.06;5021665;28;20036;-76
2021/08/19 00:05:39;;;;;;;22.35;13.45;;;;;;;13.97;100.00;100830.50;5029603;28;20035;-75
2021/08/19 00:08:04;;;;;;;21.88;12.80;;;;;;;14.00;100.00;100824.91;5027517;28;20039;-76
2021/08/19 00:10:30;;;;;;;18.55;12.00;;;;;;;13.96;100.00;100826.22;5032041;28;20036;-76
2021/08/19 00:12:55;;;;;;;19.42;12.18;;;;;;;13.91;100.00;100825.09;5015461;28;20111;-76
2021/08/19 00:15:21;;;;;;;20.33;12.85;;;;;;;13.90;100.00;100826.06;5014228;28;20029;-76
2021/08/19 00:17:46;;;;;;;20.63;12.48;;;;;;;13.82;100.00;100825.09;5021013;28;20042;-75
2021/08/19 00:20:12;;;;;;;23.33;13.02;;;;;;;13.83;100.00;100824.09;5017036;28;20053;-75
2021/08/19 00:22:38;;;;;;;17.65;11.68;;;;;;;13.84;100.00;100824.91;5004188;28;20041;-76
2021/08/19 00:25:05;;;;;;;23.50;13.73;;;;;;;13.80;100.00;100821.78;4992060;28;20032;-75
2021/08/19 00:27:31;;;;;;;19.92;13.13;;;;;;;13.78;100.00;100822.94;5038452;28;20056;-75
2021/08/19 00:29:57;;;;;;;21.33;13.88;;;;;;;13.79;100.00;100824.59;5026107;28;20068;-75
2021/08/19 00:32:25;;;;;;;23.05;12.05;;;;;;;13.77;100.00;100823.94;5034678;28;20056;-76
2021/08/19 00:34:51;;;;;;;18.05;11.90;;;;;;;13.73;100.00;100825.25;5006076;28;20119;-75
2021/08/19 00:37:17;;;;;;;18.30;12.27;;;;;;;13.71;100.00;100820.16;5007266;28;20090;-75
2021/08/19 00:39:43;;;;;;;23.73;12.00;;;;;;;13.67;100.00;100825.91;5006742;28;20040;-74
2021/08/19 00:42:08;;;;;;;25.23;11.90;;;;;;;13.66;100.00;100826.91;5030610;28;20806;-75
2021/08/19 00:44:34;;;;;;;18.05;11.48;;;;;;;13.53;100.00;100812.41;5035407;28;20090;-75
2021/08/19 00:47:00;;;;;;;15.98;10.63;;;;;;;13.43;100.00;100822.28;5041800;28;20052;-74
2021/08/19 00:49:26;;;;;;;16.65;11.20;;;;;;;13.34;100.00;100823.25;5024322;28;20041;-75
2021/08/19 00:51:57;;;;;;;17.58;10.77;;;;;;;13.28;100.00;100813.31;5028712;28;20029;-74
2021/08/19 00:54:25;;;;;;;17.90;10.98;;;;;;;13.23;100.00;100822.53;5029917;28;20106;-75
2021/08/19 00:56:56;;;;;;;22.08;10.73;;;;;;;13.24;100.00;100824.19;4996922;28;20037;-74
2021/08/19 00:59:23;;;;;;;16.42;10.35;;;;;;;13.14;100.00;100814.78;5018851;28;20041;-75
2021/08/19 01:01:59;;;;;;;20.05;11.45;;;;;;;13.16;100.00;100816.25;5013718;28;20044;-74
2021/08/19 01:04:35;;;;;;;22.83;11.98;;;;;;;13.15;100.00;100816.44;5034515;28;20540;-78
2021/08/19 01:07:01;;;;;;;17.58;11.40;;;;;;;13.11;100.00;100818.56;5020479;28;20038;-75
2021/08/19 01:09:27;;;;;;;24.23;12.90;;;;;;;13.08;100.00;100824.16;5028117;28;20033;-75
2021/08/19 01:11:52;;;;;;;17.88;12.73;;;;;;;13.02;100.00;100806.38;5028957;28;20043;-75
2021/08/19 01:14:18;;;;;;;16.67;12.40;;;;;;;13.01;100.00;100813.44;5009011;28;20029;-77
2021/08/19 01:16:47;;;;;;;19.42;12.07;;;;;;;13.05;100.00;100820.03;5026703;28;20045;-74
2021/08/19 01:19:19;;;;;;;21.33;12.40;;;;;;;13.09;100.00;100822.34;5032853;28;20035;-75
2021/08/19 01:21:46;;;;;;;16.65;12.10;;;;;;;13.08;100.00;100821.53;5012215;28;20048;-75
2021/08/19 01:24:12;;;;;;;22.58;12.70;;;;;;;13.12;100.00;100822.03;4994393;28;20033;-75
2021/08/19 01:26:41;;;;;;;24.85;13.88;;;;;;;13.16;100.00;100828.63;5014033;28;21552;-76
2021/08/19 01:29:07;;;;;;;25.70;14.05;;;;;;;13.21;100.00;100831.59;5034599;28;20431;-74
2021/08/19 01:31:34;;;;;;;24.48;13.70;;;;;;;13.19;100.00;100828.31;5029741;28;20037;-75
2021/08/19 01:34:00;;;;;;;30.27;13.80;;;;;;;13.22;100.00;100826.19;5024581;28;20034;-74
2021/08/19 01:36:26;;;;;;;25.50;13.45;;;;;;;13.17;100.00;100825.00;5025043;28;20733;-76
2021/08/19 01:38:52;;;;;;;19.95;12.45;;;;;;;13.22;100.00;100820.91;5024212;28;20025;-75
2021/08/19 01:41:18;;;;;;;30.98;12.85;;;;;;;13.24;100.00;100828.63;5012783;28;20044;-77
2021/08/19 01:43:51;;;;;;;19.73;12.55;;;;;;;13.32;100.00;100830.50;5036408;28;20033;-75
2021/08/19 01:46:18;;;;;;;22.55;12.68;;;;;;;13.36;100.00;100829.19;5035488;28;20029;-75
2021/08/19 01:48:45;;;;;;;22.73;13.25;;;;;;;13.33;100.00;100818.97;5018467;28;20427;-75
2021/08/19 01:51:15;;;;;;;19.50;12.98;;;;;;;13.34;100.00;100820.63;5029162;28;20067;-75
2021/08/19 01:53:46;;;;;;;19.65;12.73;;;;;;;13.35;100.00;100824.91;5010006;28;20095;-76
2021/08/19 01:56:13;;;;;;;24.00;12.40;;;;;;;13.46;100.00;100813.22;5030953;28;20172;-74
2021/08/19 01:58:38;;;;;;;19.20;11.25;;;;;;;13.39;100.00;100826.22;5043017;28;20628;-76
2021/08/19 02:01:04;;;;;;;22.02;11.88;;;;;;;13.43;100.00;100823.09;4992720;28;20041;-74
2021/08/19 02:03:31;;;;;;;20.67;12.68;;;;;;;13.44;100.00;100818.66;5026647;28;20037;-75
2021/08/19 02:05:57;;;;;;;21.13;11.65;;;;;;;13.42;100.00;100812.72;5012730;28;20491;-77
2021/08/19 02:08:23;;;;;;;18.83;12.30;;;;;;;13.48;100.00;100812.06;5035768;28;20048;-76
2021/08/19 02:10:48;;;;;;;16.25;11.68;;;;;;;13.52;100.00;100820.47;5026857;28;20598;-74
2021/08/19 02:13:14;;;;;;;20.85;11.85;;;;;;;13.51;100.00;100818.84;5034306;28;20881;-76
2021/08/19 02:15:41;;;;;;;19.63;12.68;;;;;;;13.45;100.00;100817.69;5030163;28;20045;-75
2021/08/19 02:18:07;;;;;;;27.98;12.50;;;;;;;13.42;100.00;100824.06;5024677;28;20036;-75
2021/08/19 02:20:33;;;;;;;20.70;12.25;;;;;;;13.40;100.00;100820.78;5007585;28;20029;-76
2021/08/19 02:23:00;;;;;;;25.88;12.85;;;;;;;13.41;100.00;100832.13;5027142;28;20033;-75
2021/08/19 02:25:27;;;;;;;21.10;13.32;;;;;;;13.40;100.00;100823.41;4998979;28;20025;-75
2021/08/19 02:27:52;;;;;;;24.02;12.85;;;;;;;13.42;100.00;100829.34;5013998;28;20038;-75
2021/08/19 02:30:18;;;;;;;24.90;13.98;;;;;;;13.43;100.00;100831.00;5027836;28;20034;-76
2021/08/19 02:32:45;;;;;;;20.30;13.65;;;;;;;13.47;100.00;100833.28;5032567;28;20045;-75
2021/08/19 02:35:10;;;;;;;24.13;13.55;;;;;;;13.49;100.00;100836.63;5012780;28;20534;-75
2021/08/19 02:37:36;;;;;;;23.48;13.90;;;;;;;13.47;100.00;100838.56;5037639;28;20103;-76
2021/08/19 02:40:02;;;;;;;27.90;14.18;;;;;;;13.44;100.00;100835.28;5033845;28;20048;-75
2021/08/19 02:42:27;;;;;;;22.38;13.80;;;;;;;13.51;100.00;100832.81;5019301;28;20032;-76
2021/08/19 02:44:54;;;;;;;18.83;13.52;;;;;;;13.52;100.00;100845.00;5012164;28;20129;-77
2021/08/19 02:47:20;;;;;;;29.33;14.82;;;;;;;13.47;100.00;100836.78;5037541;28;20032;-76
2021/08/19 02:49:47;;;;;;;21.92;13.18;;;;;;;13.57;100.00;100845.34;5017703;28;20102;-75
2021/08/19 02:52:13;;;;;;;23.42;13.57;;;;;;;13.51;100.00;100848.63;5019874;28;20064;-76
2021/08/19 02:54:40;;;;;;;17.67;13.77;;;;;;;13.50;100.00;100846.97;5024989;28;20128;-77
2021/08/19 02:57:06;;;;;;;21.92;14.75;;;;;;;13.52;100.00;100849.44;5037135;28;20044;-77
2021/08/19 02:59:31;;;;;;;22.23;14.57;;;;;;;13.48;100.00;100848.94;5025627;28;20512;-77
2021/08/19 03:01:56;;;;;;;25.70;15.55;;;;;;;13.46;100.00;100850.94;5012880;28;20065;-76
2021/08/19 03:04:22;;;;;;;24.83;16.83;;;;;;;13.53;100.00;100856.38;4995727;28;20036;-76
2021/08/19 03:06:48;;;;;;;23.25;16.13;;;;;;;13.44;100.00;100845.81;5032651;28;20494;-77
2021/08/19 03:09:13;;;;;;;27.83;17.73;;;;;;;13.40;100.00;100841.03;5005288;28;20036;-76
2021/08/19 03:11:39;;;;;;;26.67;15.90;;;;;;;13.43;100.00;100836.28;5028944;28;20078;-77
2021/08/19 03:14:05;;;;;;;23.70;16.27;;;;;;;13.43;100.00;100844.19;5034297;28;20128;-76
2021/08/19 03:16:30;;;;;;;24.95;16.17;;;;;;;13.43;100.00;100849.44;5028515;28;20041;-76
2021/08/19 03:18:56;;;;;;;26.90;16.90;;;;;;;13.41;100.00;100842.69;4996429;28;20092;-76
2021/08/19 03:21:22;;;;;;;23.58;16.92;;;;;;;13.39;100.00;100850.78;5011159;28;20037;-76
2021/08/19 03:23:48;;;;;;;27.67;15.77;;;;;;;13.51;100.00;100853.09;5004807;28;20043;-76
2021/08/19 03:26:15;;;;;;;25.05;17.27;;;;;;;13.50;100.00;100846.97;4996030;28;20341;-75
2021/08/19 03:28:44;;;;;;;26.08;17.30;;;;;;;13.51;100.00;100856.53;5045000;28;20041;-75
2021/08/19 03:31:10;;;;;;;26.70;18.63;;;;;;;13.46;100.00;100864.09;5018347;28;20037;-76
2021/08/19 03:33:38;;;;;;;28.70;18.17;;;;;;;13.52;100.00;100863.44;5036006;28;20486;-75
2021/08/19 03:36:05;;;;;;;28.00;16.85;;;;;;;13.52;100.00;100863.44;5009593;28;20026;-75
2021/08/19 03:38:32;;;;;;;27.13;18.17;;;;;;;13.48;100.00;100859.50;5009570;28;20033;-77
2021/08/19 03:40:58;;;;;;;29.60;17.08;;;;;;;13.52;100.00;100852.09;5011372;28;20406;-77
2021/08/19 03:43:24;;;;;;;18.55;11.30;;;;;;;13.42;100.00;100849.59;5010648;28;20095;-78
2021/08/19 03:45:49;;;;;;;16.10;9.75;;;;;;;13.34;100.00;100852.25;5043388;28;20029;-76
2021/08/19 03:48:16;;;;;;;17.05;9.95;;;;;;;13.30;100.00;100848.22;5010572;28;20036;-75
2021/08/19 03:50:43;;;;;;;16.38;10.60;;;;;;;13.31;100.00;100855.19;5011912;28;20033;-76
2021/08/19 03:53:09;;;;;;;14.30;9.88;;;;;;;13.31;100.00;100850.72;5016437;28;20090;-77
2021/08/19 03:55:35;;;;;;;19.00;10.65;;;;;;;13.28;100.00;100842.28;5006035;28;20033;-77
2021/08/19 03:58:00;;;;;;;16.73;10.00;;;;;;;13.27;100.00;100854.66;5012013;28;20060;-77
2021/08/19 04:00:26;;;;;;;16.52;10.18;;;;;;;13.20;100.00;100857.13;5015399;28;20762;-76
2021/08/19 04:02:51;;;;;;;14.57;8.50;;;;;;;13.15;100.00;100853.31;5004894;28;20037;-77
2021/08/19 04:05:17;;;;;;;18.48;8.98;;;;;;;13.17;100.00;100867.16;5012202;28;20551;-76
2021/08/19 04:07:43;;;;;;;13.68;8.43;;;;;;;13.22;100.00;100862.19;5026146;28;20024;-76
2021/08/19 04:10:09;;;;;;;14.07;8.43;;;;;;;13.20;100.00;100866.81;4994635;28;20124;-76
2021/08/19 04:12:35;;;;;;;15.38;9.07;;;;;;;13.20;100.00;100861.53;5027945;28;20041;-75
2021/08/19 04:15:02;;;;;;;13.52;8.50;;;;;;;13.25;100.00;100861.91;4996590;28;20045;-77
2021/08/19 04:17:28;;;;;;;15.43;9.95;;;;;;;13.26;100.00;100860.91;5014166;28;20032;-77
2021/08/19 04:20:07;;;;;;;11.60;9.48;;;;;;;13.24;100.00;100861.06;5146986;27;20445;-75
2021/08/19 04:22:33;;;;;;;19.50;9.50;;;;;;;13.25;100.00;100869.78;5146428;27;20035;-74
2021/08/19 04:24:58;;;;;;;13.98;9.68;;;;;;;13.30;100.00;100857.00;5105965;27;20034;-74
2021/08/19 04:27:24;;;;;;;14.90;10.00;;;;;;;13.28;100.00;100858.94;5087245;28;20476;-74
2021/08/19 04:29:49;;;;;;;15.90;9.70;;;;;;;13.28;100.00;100855.47;5108363;27;20023;-76
2021/08/19 04:32:16;;;;;;;22.05;10.18;;;;;;;13.27;100.00;100836.22;5082832;28;20035;-75
2021/08/19 04:34:41;;;;;;;23.45;11.07;;;;;;;13.29;100.00;100852.69;5120360;27;20039;-77
2021/08/19 04:37:08;;;;;;;13.98;9.13;;;;;;;13.29;100.00;100857.13;5118518;27;20035;-75
2021/08/19 04:39:34;;;;;;;15.65;9.77;;;;;;;13.30;100.00;100857.00;5112609;28;20033;-75
2021/08/19 04:41:59;;;;;;;13.93;10.20;;;;;;;13.32;100.00;100862.94;5108109;28;20027;-75
2021/08/19 04:44:27;;;;;;;16.27;10.32;;;;;;;13.33;100.00;100864.56;5092301;28;20038;-76
2021/08/19 04:46:52;;;;;;;14.30;9.68;;;;;;;13.36;100.00;100866.88;5106889;27;20027;-75
2021/08/19 04:49:18;;;;;;;14.43;10.25;;;;;;;13.40;100.00;100865.56;5127028;27;20019;-74
2021/08/19 04:51:43;;;;;;;15.95;10.45;;;;;;;13.41;100.00;100866.38;5095018;28;20119;-75
2021/08/19 04:54:09;;;;;;;19.70;11.23;;;;;;;13.40;100.00;100864.75;5094382;28;20397;-75
2021/08/19 04:56:38;;;;;;;15.85;11.05;;;;;;;13.48;100.00;100871.84;5106260;28;20061;-76
2021/08/19 04:59:08;;;;;;;16.05;10.95;;;;;;;13.49;100.00;100869.06;5098493;27;20038;-75
2021/08/19 05:01:34;;;;;;;12.68;9.60;;;;;;;13.55;100.00;100872.84;5106105;28;20028;-74
2021/08/19 05:04:00;;;;;;;11.57;9.00;;;;;;;13.58;100.00;100870.72;5104827;27;20091;-75
2021/08/19 05:06:27;;;;;;;11.50;8.55;;;;;;;13.61;100.00;100873.00;5094097;27;20484;-75
2021/08/19 05:08:53;;;;;;;11.60;9.50;;;;;;;13.64;100.00;100871.88;5111002;28;20035;-75
2021/08/19 05:11:19;;;;;;;11.70;9.48;;;;;;;13.68;100.00;100875.84;5082700;28;20040;-76
2021/08/19 05:13:44;;;;;;;12.55;8.55;;;;;;;13.65;100.00;100876.16;5109965;27;20031;-75
2021/08/19 05:16:10;;;;;;;14.70;9.30;;;;;;;13.69;100.00;100874.81;5100511;28;20100;-74
2021/08/19 05:18:35;;;;;;;14.20;9.65;;;;;;;13.75;100.00;100879.47;5067135;28;20438;-75
2021/08/19 05:21:01;;;;;;;17.77;10.27;;;;;;;13.77;100.00;100877.50;5092066;28;20439;-77
2021/08/19 05:23:27;;;;;;;14.23;11.38;;;;;;;13.81;100.00;100889.34;5097335;28;20462;-76
2021/08/19 05:25:52;;;;;;;17.73;11.18;;;;;;;13.84;100.00;100885.56;5081302;28;20062;-75
2021/08/19 05:28:18;;;;;;;17.90;11.90;;;;;;;13.89;100.00;100890.34;5124981;27;20031;-75
2021/08/19 05:30:43;;;;;;;16.38;11.70;;;;;;;13.91;100.00;100889.19;5116623;27;20035;-78
2021/08/19 05:33:09;;;;;;;17.42;11.57;;;;;;;13.91;100.00;100893.63;5074179;27;20043;-77
2021/08/19 05:35:34;;;;;;;18.48;11.52;;;;;;;13.92;100.00;100893.47;5111528;27;20039;-74
2021/08/19 05:38:00;;;;;;;15.88;11.50;;;;;;;13.99;100.00;100904.19;5071978;28;20032;-74
2021/08/19 05:40:25;;;;;;;19.38;11.05;;;;;;;14.06;100.00;100902.53;5088096;27;20035;-76
2021/08/19 05:42:51;;;;;;;19.60;11.68;;;;;;;14.00;100.00;100893.47;5087694;27;20034;-75
2021/08/19 05:45:17;;;;;;;17.00;10.88;;;;;;;14.09;100.00;100904.00;5100218;28;20429;-75
2021/08/19 05:47:42;;;;;;;16.30;11.27;;;;;;;14.05;100.00;100914.06;5092207;28;20111;-75
2021/08/19 05:50:10;;;;;;;19.73;11.25;;;;;;;14.06;100.00;100910.44;5110334;27;20027;-76
2021/08/19 05:52:38;;;;;;;17.80;11.32;;;;;;;14.03;100.00;100913.41;5086025;28;20037;-75
2021/08/19 05:55:04;;;;;;;15.38;10.43;;;;;;;13.94;100.00;100909.97;5082272;28;20055;-74
2021/08/19 05:57:30;;;;;;;17.38;10.80;;;;;;;13.96;100.00;100913.25;5075719;28;20492;-76
2021/08/19 05:59:55;;;;;;;14.73;10.73;;;;;;;13.96;100.00;100915.88;5083018;28;20054;-75
2021/08/19 06:02:21;;;;;;;19.83;11.50;;;;;;;13.96;100.00;100910.63;5078221;28;20024;-75
2021/08/19 06:04:46;;;;;;;17.85;10.45;;;;;;;13.93;100.00;100916.22;5110784;28;20048;-75
2021/08/19 06:07:12;;;;;;;18.63;10.98;;;;;;;13.97;100.00;100920.16;5093203;28;20044;-74
2021/08/19 06:09:37;;;;;;;17.33;10.32;;;;;;;14.02;100.00;100924.97;5074581;28;20036;-74
2021/08/19 06:12:03;;;;;;;16.42;10.57;;;;;;;14.02;100.00;100920.50;5091725;28;20031;-74
2021/08/19 06:14:29;;;;;;;15.82;10.35;;;;;;;14.08;100.00;100926.13;5091771;28;20035;-76
2021/08/19 06:16:55;;;;;;;15.27;10.90;;;;;;;14.12;100.00;100933.53;5074594;28;20047;-77
2021/08/19 06:19:20;;;;;;;19.75;10.98;;;;;;;14.21;100.00;100932.53;5071045;28;20039;-76
2021/08/19 06:21:46;;;;;;;16.77;10.07;;;;;;;14.34;100.00;100936.50;5077380;28;20036;-75
2021/08/19 06:24:11;;;;;;;19.73;10.05;;;;;;;14.41;100.00;100935.66;5074655;28;20042;-75
2021/08/19 06:26:37;;;;;;;16.75;10.95;;;;;;;14.47;100.00;100936.81;5109553;28;20446;-76
2021/08/19 06:29:03;;;;;;;17.95;8.93;;;;;;;14.53;100.00;100937.94;5071366;28;20473;-76
2021/08/19 06:31:28;;;;;;;16.48;9.23;;;;;;;14.66;100.00;100940.94;5089604;28;20044;-74
2021/08/19 06:33:54;;;;;;;14.10;9.25;;;;;;;14.74;100.00;100938.25;5071045;28;20053;-75
2021/08/19 06:36:19;;;;;;;12.32;8.60;;;;;;;14.88;100.00;100933.25;5076541;28;20031;-75
2021/08/19 06:38:45;;;;;;;13.93;8.65;;;;;;;14.97;100.00;100932.25;5073633;28;20059;-75
2021/08/19 06:41:10;;;;;;;12.77;8.27;;;;;;;14.98;100.00;100925.97;5069542;28;20496;-76
2021/08/19 06:43:36;;;;;;;13.75;8.18;;;;;;;15.01;100.00;100932.72;5090965;28;20433;-76
2021/08/19 06:46:02;;;;;;;15.07;8.23;;;;;;;15.02;100.00;100929.91;5090760;28;20511;-76
2021/08/19 06:48:27;;;;;;;13.48;7.78;;;;;;;15.03;100.00;100941.31;5074545;28;20046;-75
2021/08/19 06:50:53;;;;;;;13.75;7.97;;;;;;;15.06;100.00;100938.34;5091342;28;20031;-75
2021/08/19 06:53:18;;;;;;;18.08;7.90;;;;;;;15.07;100.00;100932.03;5085455;28;20031;-76
2021/08/19 06:55:44;;;;;;;11.93;8.20;;;;;;;15.03;100.00;100943.94;5086229;28;20035;-74
2021/08/19 06:58:09;;;;;;;12.73;7.68;;;;;;;15.06;100.00;100941.78;5091028;28;20059;-74
2021/08/19 07:00:35;;;;;;;13.00;8.40;;;;;;;15.15;100.00;100948.69;5090045;28;20085;-77
2021/08/19 07:03:01;;;;;;;12.85;8.25;;;;;;;15.17;100.00;100948.53;5108403;28;20504;-75
2021/08/19 07:05:26;;;;;;;12.95;8.02;;;;;;;15.17;100.00;100940.59;5074245;28;20096;-77
2021/08/19 07:07:57;;;;;;;15.45;8.77;;;;;;;15.20;100.00;100948.19;5072930;28;20031;-75
2021/08/19 07:10:23;;;;;;;10.27;8.20;;;;;;;15.16;100.00;100958.28;5091040;28;20427;-74
2021/08/19 07:12:49;;;;;;;16.70;8.07;;;;;;;15.20;100.00;100953.47;5109258;28;20480;-75
2021/08/19 07:15:14;;;;;;;14.18;7.38;;;;;;;15.06;100.00;100960.28;5075316;28;20054;-75
2021/08/19 07:17:40;;;;;;;10.73;7.05;;;;;;;14.99;100.00;100975.16;5073268;28;20061;-75
2021/08/19 07:20:06;;;;;;;15.82;7.70;;;;;;;14.88;100.00;100971.06;5073824;28;20080;-74
2021/08/19 07:22:32;;;;;;;17.33;7.32;;;;;;;14.87;100.00;100976.53;5090411;28;20137;-75
2021/08/19 07:24:58;;;;;;;11.48;7.20;;;;;;;14.88;100.00;100970.22;5108826;28;20663;-76
2021/08/19 07:27:23;;;;;;;7.90;6.40;;;;;;;14.92;100.00;100967.09;5089851;28;20039;-75
2021/08/19 07:29:49;;;;;;;8.10;6.10;;;;;;;15.01;100.00;100965.25;5073480;28;20024;-75
2021/08/19 07:32:19;;;;;;;8.00;6.00;;;;;;;15.03;100.00;100957.16;5057046;28;20139;-75
2021/08/19 07:34:45;;;;;;;6.15;5.40;;;;;;;15.08;100.00;100966.22;5080924;28;20038;-76
2021/08/19 07:37:11;;;;;;;8.18;5.93;;;;;;;15.13;100.00;100968.34;5107660;28;20035;-76
2021/08/19 07:39:36;;;;;;;10.27;7.13;;;;;;;15.26;100.00;100962.53;5107674;28;20676;-76
2021/08/19 07:42:02;;;;;;;9.07;7.10;;;;;;;15.39;100.00;100973.38;5090253;28;20491;-76
2021/08/19 07:44:28;;;;;;;10.45;6.63;;;;;;;15.50;100.00;100966.84;5089649;28;20444;-76
2021/08/19 07:46:53;;;;;;;10.02;6.90;;;;;;;15.59;100.00;100973.75;5107696;28;20035;-74
2021/08/19 07:49:21;;;;;;;9.95;6.47;;;;;;;15.61;100.00;100969.09;5072918;28;20708;-75
2021/08/19 07:51:47;;;;;;;11.52;7.25;;;;;;;15.67;100.00;100968.44;5057956;27;20380;-75
2021/08/19 07:54:13;;;;;;;8.88;7.18;;;;;;;15.89;100.00;100972.09;5103729;28;20031;-76
2021/08/19 07:56:38;;;;;;;9.07;6.47;;;;;;;16.09;100.00;100972.47;5069271;28;20051;-75
2021/08/19 07:59:04;;;;;;;8.88;6.05;;;;;;;16.23;100.00;100975.34;5100077;28;20032;-75
2021/08/19 08:01:29;;;;;;;11.18;7.10;;;;;;;16.35;100.00;100977.41;5107352;28;20260;-75
2021/08/19 08:03:55;;;;;;;9.25;6.35;;;;;;;16.51;100.00;100980.88;5072697;28;20479;-76
2021/08/19 08:06:21;;;;;;;11.15;6.20;;;;;;;16.56;100.00;100986.47;5089072;28;20035;-76
2021/08/19 08:08:47;;;;;;;7.72;5.45;;;;;;;16.45;100.00;100992.22;5072485;28;20662;-75
2021/08/19 08:11:13;;;;;;;8.00;5.15;;;;;;;16.29;100.00;100985.22;5107596;28;20032;-75
2021/08/19 08:13:38;;;;;;;8.60;5.25;;;;;;;16.13;100.00;100989.63;5093142;28;20092;-76
2021/08/19 08:16:04;;;;;;;8.88;5.35;;;;;;;16.04;100.00;100988.03;5055477;28;20552;-75
2021/08/19 08:18:30;;;;;;;10.55;5.43;;;;;;;16.03;100.00;100982.94;5072479;28;20028;-74
2021/08/19 08:20:57;;;;;;;11.65;5.43;;;;;;;16.22;100.00;100992.22;5089934;28;20640;-74
2021/08/19 08:23:23;;;;;;;8.18;5.47;;;;;;;16.77;100.00;100995.56;5070472;28;20122;-75
2021/08/19 08:25:49;;;;;;;8.07;4.85;;;;;;;16.96;100.00;100997.69;5087992;28;20027;-75
2021/08/19 08:28:19;;;;;;;9.60;4.72;;;;;;;17.12;100.00;100999.31;5072606;28;20027;-76
2021/08/19 08:30:50;;;;;;;6.18;4.00;;;;;;;17.18;100.00;101006.56;5072042;28;20089;-77
2021/08/19 08:33:16;;;;;;;6.63;3.90;;;;;;;17.22;100.00;100999.88;5072676;28;20059;-75
2021/08/19 08:35:42;;;;;;;6.47;3.92;;;;;;;17.15;100.00;101001.63;5072673;28;20040;-77
2021/08/19 08:38:20;;;;;;;5.88;3.60;;;;;;;16.88;100.00;101006.56;5072424;28;20160;-75
2021/08/19 08:40:49;;;;;;;6.78;3.65;;;;;;;16.81;100.00;101010.88;5089657;28;20031;-76
2021/08/19 08:43:16;;;;;;;6.93;4.35;;;;;;;16.84;100.00;101013.22;5052906;28;20036;-77
2021/08/19 08:45:45;;;;;;;8.10;4.03;;;;;;;16.68;100.00;101011.50;5053045;28;20493;-75
2021/08/19 08:48:24;;;;;;;7.60;4.68;;;;;;;16.79;100.00;101012.09;5068947;28;20035;-76
2021/08/19 08:50:52;;;;;;;5.90;4.80;;;;;;;16.78;100.00;100998.00;5090955;28;20027;-77
2021/08/19 08:53:19;;;;;;;13.55;5.40;;;;;;;17.04;100.00;101010.84;5072364;28;20500;-76
2021/08/19 08:55:46;;;;;;;9.98;5.22;;;;;;;17.10;100.00;101015.44;5073508;28;20534;-78
2021/08/19 08:58:12;;;;;;;9.93;5.68;;;;;;;16.99;100.00;101015.03;5090580;28;20052;-74
2021/08/19 09:00:42;;;;;;;15.05;6.22;;;;;;;16.82;100.00;101011.72;5070187;28;20093;-76
2021/08/19 09:03:09;;;;;;;11.43;6.32;;;;;;;16.88;100.00;101013.69;5069328;28;20032;-77
2021/08/19 09:05:42;;;;;;;14.10;6.00;;;;;;;17.13;100.00;101022.19;5055973;28;20132;-77
2021/08/19 09:08:14;;;;;;;14.13;6.38;;;;;;;17.33;100.00;101027.75;5074366;28;20084;-76
2021/08/19 09:10:40;;;;;;;13.50;6.20;;;;;;;17.47;100.00;101026.09;5111277;28;20138;-75
2021/08/19 09:13:14;;;;;;;14.35;6.03;;;;;;;17.51;100.00;101027.38;5092621;28;20568;-77
2021/08/19 09:15:40;;;;;;;9.70;5.57;;;;;;;17.71;100.00;101022.31;5093671;28;20036;-75
2021/08/19 09:18:06;;;;;;;9.18;5.57;;;;;;;17.79;100.00;101027.50;5093790;28;20119;-76
2021/08/19 09:20:41;;;;;;;8.70;5.13;;;;;;;17.75;100.00;101034.19;5059748;28;20039;-74
2021/08/19 09:23:13;;;;;;;10.43;5.05;;;;;;;17.61;100.00;101037.69;5075774;28;20027;-76
2021/08/19 09:25:45;;;;;;;10.95;4.85;;;;;;;17.50;100.00;101036.34;5076289;28;20039;-75
2021/08/19 09:28:15;;;;;;;12.52;5.15;;;;;;;17.53;100.00;101038.59;5092860;28;20035;-76
2021/08/19 09:30:46;;;;;;;8.55;4.63;;;;;;;17.54;100.00;101027.00;5092782;28;20043;-75
2021/08/19 09:33:14;;;;;;;6.90;4.55;;;;;;;17.65;100.00;101038.94;5075483;28;20036;-78
2021/08/19 09:35:40;;;;;;;10.20;5.25;;;;;;;17.73;100.00;101038.03;5092676;28;20485;-77
2021/08/19 09:38:26;;;;;;;8.35;4.93;;;;;;;17.70;100.00;101029.41;5091731;28;20095;-75
2021/08/19 09:41:05;;;;;;;8.32;4.47;;;;;;;17.92;100.00;101032.16;5075987;28;20028;-77
2021/08/19 09:43:36;;;;;;;6.60;4.55;;;;;;;18.06;100.00;101023.34;5110554;28;20039;-75
2021/08/19 09:46:01;;;;;;;8.75;4.47;;;;;;;18.09;98.33;101022.13;5055093;28;20038;-73
2021/08/19 09:48:28;;;;;;;10.00;4.40;;;;;;;18.01;98.33;101033.69;5092319;28;20032;-77
2021/08/19 09:51:29;;;;;;;12.88;4.80;;;;;;;17.97;97.64;101032.41;5092269;28;20028;-76
2021/08/19 09:53:58;;;;;;;8.00;4.57;;;;;;;17.93;94.62;101032.97;5058170;28;20100;-76
2021/08/19 09:56:31;;;;;;;8.73;4.30;;;;;;;17.91;99.07;101038.47;5075008;28;20032;-76
2021/08/19 09:59:21;;;;;;;9.40;4.47;;;;;;;17.73;100.00;101033.56;5076390;28;20575;-76
2021/08/19 10:01:49;;;;;;;7.20;4.35;;;;;;;17.68;100.00;101043.88;5075050;28;20032;-77
2021/08/19 10:04:15;;;;;;;6.53;4.35;;;;;;;17.50;100.00;101039.81;5091793;28;20032;-75
2021/08/19 10:06:41;;;;;;;5.97;4.30;;;;;;;17.37;100.00;101034.34;5074994;28;20084;-77
2021/08/19 10:09:07;;;;;;;7.38;4.22;;;;;;;17.20;100.00;101038.19;5091625;28;20035;-77
2021/08/19 10:11:33;;;;;;;9.50;5.18;;;;;;;17.14;100.00;101045.03;5110429;28;20036;-77
2021/08/19 10:14:02;;;;;;;9.45;4.95;;;;;;;17.03;100.00;101040.19;5110640;28;20100;-76
2021/08/19 10:16:31;;;;;;;8.27;5.15;;;;;;;16.86;100.00;101036.88;5055407;28;20032;-76
2021/08/19 10:19:00;;;;;;;9.82;5.10;;;;;;;16.73;100.00;101034.81;5067119;28;20036;-77
2021/08/19 10:21:28;;;;;;;10.27;5.55;;;;;;;16.60;100.00;101039.91;5074928;28;20062;-75
2021/08/19 10:23:55;;;;;;;8.15;5.70;;;;;;;16.60;100.00;101034.59;5037974;28;20368;-74
2021/08/19 10:26:23;;;;;;;14.27;5.95;;;;;;;16.50;100.00;101048.06;5084416;28;20035;-76
2021/08/19 10:29:00;;;;;;;11.75;6.00;;;;;;;16.49;100.00;101036.66;5068849;28;20035;-75
2021/08/19 10:31:43;;;;;;;9.30;5.60;;;;;;;16.62;100.00;101036.06;5074973;28;20043;-75
2021/08/19 10:34:52;;;;;;;13.07;6.18;;;;;;;16.79;100.00;101041.22;5054534;28;20036;-76
2021/08/19 10:37:18;;;;;;;15.80;6.32;;;;;;;16.86;100.00;101045.66;5067582;28;20036;-76
2021/08/19 10:39:44;;;;;;;12.90;6.30;;;;;;;17.13;96.96;101043.38;5073195;28;20408;-77
2021/08/19 10:42:11;;;;;;;14.13;7.03;;;;;;;17.20;95.03;101048.78;5072709;28;20489;-77
2021/08/19 10:44:45;;;;;;;12.68;6.43;;;;;;;17.30;97.15;101046.69;5091886;28;20031;-77
2021/08/19 10:47:35;;;;;;;10.20;6.18;;;;;;;17.24;99.61;101042.94;5073736;28;20038;-76
2021/08/19 10:50:20;;;;;;;12.32;6.13;;;;;;;17.22;97.60;101044.13;5073492;28;20035;-74
2021/08/19 10:52:49;;;;;;;14.05;6.75;;;;;;;17.21;98.18;101050.41;5056794;28;20489;-75
2021/08/19 10:55:17;;;;;;;11.52;6.30;;;;;;;17.18;95.85;101040.16;5090666;28;20122;-76
2021/08/19 10:57:51;;;;;;;11.27;5.85;;;;;;;17.29;97.33;101052.97;5074768;28;20028;-75
2021/08/19 11:00:34;;;;;;;14.82;6.40;;;;;;;17.25;96.16;101052.53;5091533;28;20047;-74
2021/08/19 11:02:59;;;;;;;11.43;6.13;;;;;;;17.28;98.86;101049.50;5054398;28;20038;-76
2021/08/19 11:05:28;;;;;;;14.48;6.80;;;;;;;17.31;100.00;101054.44;5064990;28;20032;-76
2021/08/19 11:07:56;;;;;;;10.32;6.10;;;;;;;17.30;100.00;101046.69;5109084;28;20786;-76